createdAt,value
2023-05-10T00:00:32.579Z,81.2391
2023-05-10T00:01:34.268Z,81.6511
2023-05-10T00:02:35.854Z,81.3961
2023-05-10T00:03:37.501Z,81.1298
2023-05-10T00:04:39.121Z,81.1690
2023-05-10T00:05:40.789Z,80.9922
2023-05-10T00:06:42.377Z,81.1773
2023-05-10T00:07:44.033Z,81.2716
2023-05-10T00:08:45.655Z,81.2667
2023-05-10T00:09:47.305Z,80.9935
2023-05-10T00:10:48.989Z,81.1380
2023-05-10T00:11:50.558Z,81.0211
2023-05-10T00:12:52.239Z,80.8960
2023-05-10T00:13:53.815Z,80.6780
2023-05-10T00:14:55.488Z,80.7624
2023-05-10T00:15:57.156Z,81.0738
2023-05-10T00:16:58.824Z,80.6895
2023-05-10T00:18:00.500Z,80.8829
2023-05-10T00:19:01.990Z,80.7799
2023-05-10T00:20:03.740Z,80.5547
2023-05-10T00:21:05.385Z,80.4372
2023-05-10T00:22:07.009Z,80.3248
2023-05-10T00:23:08.652Z,80.3733
2023-05-10T00:24:10.349Z,80.6070
2023-05-10T00:25:11.977Z,80.4822
2023-05-10T00:26:13.623Z,80.5430
2023-05-10T00:27:15.239Z,80.4690
2023-05-10T00:28:16.862Z,80.4656
2023-05-10T00:29:18.464Z,80.3527
2023-05-10T00:30:20.097Z,80.0496
2023-05-10T00:31:21.744Z,80.2369
2023-05-10T00:32:23.503Z,80.3017
2023-05-10T00:33:25.091Z,80.1117
2023-05-10T00:34:26.697Z,80.3729
2023-05-10T00:35:28.349Z,80.3589
2023-05-10T00:36:29.978Z,80.2184
2023-05-10T00:37:31.664Z,79.8890
2023-05-10T00:38:33.207Z,79.7103
2023-05-10T00:39:34.881Z,79.6431
2023-05-10T00:40:36.595Z,79.6748
2023-05-10T00:41:38.179Z,79.9143
2023-05-10T00:42:39.781Z,79.7691
2023-05-10T00:43:41.458Z,80.0532
2023-05-10T00:44:43.045Z,79.9611
2023-05-10T00:45:44.749Z,79.7126
2023-05-10T00:46:46.348Z,79.5064
2023-05-10T00:47:48.079Z,79.4471
2023-05-10T00:48:49.674Z,79.3310
2023-05-10T00:49:51.249Z,79.5725
2023-05-10T00:50:52.969Z,79.7995
2023-05-10T00:51:55.180Z,79.8599
2023-05-10T00:52:57.127Z,80.0710
2023-05-10T00:53:57.839Z,79.8757
2023-05-10T00:54:59.543Z,79.4893
2023-05-10T00:56:01.161Z,79.3559
2023-05-10T00:57:02.831Z,79.2611
2023-05-10T00:58:04.388Z,79.0760
2023-05-10T00:59:06.018Z,79.1930
2023-05-10T01:00:07.745Z,79.3911
2023-05-10T01:01:09.313Z,79.4988
2023-05-10T01:02:12.752Z,79.7030
2023-05-10T01:03:12.736Z,79.4027
2023-05-10T01:04:14.241Z,79.2087
2023-05-10T01:05:16.048Z,79.1872
2023-05-10T01:06:17.460Z,79.0815
2023-05-10T01:07:19.224Z,78.9634
2023-05-10T01:08:20.755Z,79.3344
2023-05-10T01:09:22.435Z,79.4756
2023-05-10T01:10:24.072Z,79.4240
2023-05-10T01:11:25.702Z,79.3040
2023-05-10T01:12:27.372Z,79.1230
2023-05-10T01:13:29.104Z,78.9239
2023-05-10T01:14:30.622Z,78.7312
2023-05-10T01:15:32.309Z,78.7710
2023-05-10T01:16:33.999Z,78.8616
2023-05-10T01:17:35.803Z,79.0233
2023-05-10T01:18:37.138Z,79.2877
2023-05-10T01:19:38.852Z,79.2997
2023-05-10T01:20:40.469Z,79.0074
2023-05-10T01:21:42.144Z,78.8585
2023-05-10T01:22:43.793Z,78.6316
2023-05-10T01:23:45.406Z,78.6089
2023-05-10T01:24:47.037Z,78.6523
2023-05-10T01:25:48.680Z,78.8783
2023-05-10T01:26:50.317Z,79.2316
2023-05-10T01:27:52.212Z,79.3400
2023-05-10T01:28:53.646Z,79.2353
2023-05-10T01:30:05.907Z,78.9439
2023-05-10T01:30:56.891Z,78.7946
2023-05-10T01:31:58.541Z,78.6831
2023-05-10T01:33:00.250Z,78.6288
2023-05-10T01:34:01.905Z,78.6508
2023-05-10T01:35:03.514Z,78.7648
2023-05-10T01:36:05.247Z,78.8956
2023-05-10T01:37:06.828Z,79.0883
2023-05-10T01:38:08.439Z,79.1884
2023-05-10T01:39:10.057Z,79.0421
2023-05-10T01:40:11.653Z,78.8586
2023-05-10T01:41:13.339Z,78.5371
2023-05-10T01:42:14.948Z,78.6606
2023-05-10T01:43:16.660Z,78.9159
2023-05-10T01:44:18.274Z,78.8962
2023-05-10T01:45:19.905Z,78.8466
2023-05-10T01:46:21.580Z,79.0830
2023-05-10T01:47:23.194Z,78.8267
2023-05-10T01:48:24.871Z,78.5957
2023-05-10T01:49:26.556Z,78.4446
2023-05-10T01:50:28.100Z,78.3917
2023-05-10T01:51:29.750Z,78.3992
2023-05-10T01:52:31.445Z,78.5868
2023-05-10T01:53:33.244Z,78.7440
2023-05-10T01:54:34.653Z,79.1104
2023-05-10T01:55:36.340Z,78.9820
2023-05-10T01:56:37.884Z,78.5257
2023-05-10T01:57:39.524Z,78.4518
2023-05-10T01:58:41.191Z,78.4841
2023-05-10T01:59:42.816Z,78.4941
2023-05-10T02:00:44.435Z,78.7210
2023-05-10T02:01:46.128Z,78.8801
2023-05-10T02:02:47.777Z,79.1634
2023-05-10T02:03:49.448Z,79.2012
2023-05-10T02:04:52.197Z,78.9801
2023-05-10T02:05:53.708Z,78.6040
2023-05-10T02:06:55.328Z,78.4620
2023-05-10T02:07:56.096Z,78.4653
2023-05-10T02:08:58.344Z,78.7299
2023-05-10T02:09:59.484Z,78.9725
2023-05-10T02:11:01.990Z,79.0492
2023-05-10T02:12:03.704Z,79.0216
2023-05-10T02:13:04.261Z,79.1899
2023-05-10T02:14:06.230Z,79.1564
2023-05-10T02:15:07.631Z,78.7839
2023-05-10T02:16:09.261Z,78.6322
2023-05-10T02:17:10.806Z,78.5865
2023-05-10T02:18:12.507Z,78.7927
2023-05-10T02:19:14.141Z,78.9824
2023-05-10T02:20:16.460Z,79.0659
2023-05-10T02:21:17.419Z,79.1011
2023-05-10T02:22:19.081Z,79.5127
2023-05-10T02:23:20.679Z,79.3083
2023-05-10T02:24:22.360Z,78.9097
2023-05-10T02:25:24.043Z,78.8464
2023-05-10T02:26:25.626Z,78.8546
2023-05-10T02:27:27.257Z,79.0828
2023-05-10T02:28:28.945Z,79.2792
2023-05-10T02:29:30.704Z,79.3731
2023-05-10T02:30:32.268Z,79.6837
2023-05-10T02:31:34.015Z,79.6240
2023-05-10T02:32:35.629Z,79.1287
2023-05-10T02:33:37.153Z,78.8459
2023-05-10T02:34:38.907Z,78.7986
2023-05-10T02:35:40.465Z,78.9548
2023-05-10T02:36:42.168Z,79.2020
2023-05-10T02:37:43.806Z,79.3760
2023-05-10T02:38:45.365Z,79.3187
2023-05-10T02:39:47.116Z,79.2962
2023-05-10T02:40:48.702Z,79.1976
2023-05-10T02:41:50.285Z,78.8331
2023-05-10T02:42:51.957Z,78.6623
2023-05-10T02:43:53.632Z,78.5816
2023-05-10T02:44:55.226Z,78.7831
2023-05-10T02:45:57.274Z,79.0449
2023-05-10T02:46:58.478Z,79.2945
2023-05-10T02:48:00.246Z,79.4159
2023-05-10T02:49:01.795Z,79.4385
2023-05-10T02:50:03.426Z,79.6366
2023-05-10T02:51:05.088Z,79.3127
2023-05-10T02:52:06.748Z,79.2506
2023-05-10T02:53:08.333Z,79.6562
2023-05-10T02:54:10.080Z,79.4419
2023-05-10T02:55:11.645Z,78.5991
2023-05-10T02:56:13.355Z,77.7279
2023-05-10T02:57:15.009Z,76.9431
2023-05-10T02:58:16.609Z,76.3780
2023-05-10T02:59:18.213Z,75.7894
2023-05-10T03:00:19.929Z,74.9501
2023-05-10T03:01:21.517Z,74.1838
2023-05-10T03:02:23.190Z,73.7523
2023-05-10T03:03:24.775Z,73.8731
2023-05-10T03:04:26.472Z,74.1328
2023-05-10T03:05:28.100Z,74.2720
2023-05-10T03:06:29.752Z,74.3773
2023-05-10T03:07:31.356Z,74.5042
2023-05-10T03:08:33.041Z,74.7361
2023-05-10T03:09:34.703Z,74.9352
2023-05-10T03:10:36.351Z,75.1447
2023-05-10T03:11:38.090Z,75.0784
2023-05-10T03:12:39.582Z,74.8427
2023-05-10T03:13:41.282Z,74.5317
2023-05-10T03:14:42.858Z,74.3156
2023-05-10T03:15:44.608Z,74.3290
2023-05-10T03:16:46.337Z,74.4577
2023-05-10T03:17:47.795Z,74.4994
2023-05-10T03:18:49.453Z,74.5583
2023-05-10T03:19:51.143Z,74.7521
2023-05-10T03:20:52.800Z,74.8144
2023-05-10T03:21:54.565Z,74.5753
2023-05-10T03:22:56.025Z,74.5546
2023-05-10T03:23:57.689Z,74.4346
2023-05-10T03:24:59.342Z,74.4732
2023-05-10T03:26:01.024Z,74.6242
2023-05-10T03:27:02.629Z,74.6148
2023-05-10T03:28:04.249Z,74.5379
2023-05-10T03:29:05.897Z,74.4847
2023-05-10T03:30:07.488Z,74.4995
2023-05-10T03:31:09.204Z,74.4621
2023-05-10T03:32:10.817Z,74.4770
2023-05-10T03:33:12.422Z,74.5628
2023-05-10T03:34:14.108Z,74.4651
2023-05-10T03:35:15.823Z,74.4551
2023-05-10T03:36:17.487Z,74.4000
2023-05-10T03:37:19.039Z,74.4385
2023-05-10T03:38:20.725Z,74.5054
2023-05-10T03:39:22.378Z,74.4508
2023-05-10T03:40:23.937Z,74.2780
2023-05-10T03:41:25.572Z,74.1375
2023-05-10T03:42:27.331Z,74.1885
2023-05-10T03:43:28.848Z,74.1252
2023-05-10T03:44:30.513Z,74.0687
2023-05-10T03:45:32.218Z,74.1609
2023-05-10T03:46:33.834Z,74.2905
2023-05-10T03:47:35.479Z,74.0907
2023-05-10T03:48:37.096Z,73.8516
2023-05-10T03:49:38.709Z,73.8152
2023-05-10T03:50:40.389Z,73.7090
2023-05-10T03:51:42.110Z,73.8763
2023-05-10T03:52:43.684Z,74.0680
2023-05-10T03:53:45.277Z,73.9041
2023-05-10T03:54:46.932Z,74.0169
2023-05-10T03:55:48.597Z,74.1995
2023-05-10T03:56:50.256Z,74.2608
2023-05-10T03:57:51.918Z,74.4021
2023-05-10T03:58:53.476Z,74.6348
2023-05-10T03:59:55.049Z,74.7135
2023-05-10T04:00:56.700Z,74.8572
2023-05-10T04:01:58.368Z,74.7751
2023-05-10T04:03:00.121Z,74.7668
2023-05-10T04:04:01.624Z,74.6859
2023-05-10T04:05:03.285Z,74.3611
2023-05-10T04:06:04.939Z,74.2968
2023-05-10T04:07:06.531Z,74.3014
2023-05-10T04:08:08.212Z,74.1649
2023-05-10T04:09:09.819Z,74.1482
2023-05-10T04:10:11.499Z,74.1697
2023-05-10T04:11:15.724Z,74.1190
2023-05-10T04:12:14.747Z,74.0777
2023-05-10T04:13:16.552Z,74.1421
2023-05-10T04:14:18.043Z,74.2213
2023-05-10T04:15:19.671Z,74.2247
2023-05-10T04:16:21.323Z,74.1604
2023-05-10T04:17:23.075Z,74.0503
2023-05-10T04:18:24.656Z,73.8616
2023-05-10T04:19:27.273Z,73.7470
2023-05-10T04:20:27.932Z,73.7327
2023-05-10T04:21:29.568Z,73.8544
2023-05-10T04:22:31.175Z,73.8990
2023-05-10T04:23:32.930Z,73.8652
2023-05-10T04:24:34.580Z,73.9147
2023-05-10T04:25:37.256Z,73.8629
2023-05-10T04:26:37.830Z,73.9280
2023-05-10T04:27:39.429Z,73.9568
2023-05-10T04:28:41.227Z,73.9646
2023-05-10T04:29:42.794Z,74.1302
2023-05-10T04:30:44.420Z,74.2651
2023-05-10T04:31:46.066Z,74.3893
2023-05-10T04:32:48.721Z,74.4197
2023-05-10T04:33:49.347Z,74.3227
2023-05-10T04:34:50.972Z,74.2112
2023-05-10T04:35:52.597Z,74.2028
2023-05-10T04:36:54.295Z,74.2477
2023-05-10T04:37:55.833Z,74.2878
2023-05-10T04:38:57.606Z,74.1738
2023-05-10T04:39:59.160Z,74.0637
2023-05-10T04:41:00.797Z,74.0622
2023-05-10T04:42:02.533Z,74.0379
2023-05-10T04:43:04.209Z,73.8713
2023-05-10T04:44:06.003Z,74.0760
2023-05-10T04:45:07.520Z,74.1770
2023-05-10T04:46:09.168Z,74.1022
2023-05-10T04:47:12.676Z,74.0734
2023-05-10T04:48:12.474Z,74.0690
2023-05-10T04:49:14.101Z,74.0507
2023-05-10T04:50:15.969Z,74.0422
2023-05-10T04:51:17.473Z,73.9799
2023-05-10T04:52:18.959Z,73.8430
2023-05-10T04:53:20.684Z,73.4894
2023-05-10T04:54:23.040Z,72.8402
2023-05-10T04:55:23.989Z,71.9931
2023-05-10T04:56:25.574Z,71.0814
2023-05-10T04:57:27.234Z,70.0179
2023-05-10T04:58:28.830Z,68.7560
2023-05-10T04:59:30.938Z,68.0433
2023-05-10T05:00:32.138Z,67.4495
2023-05-10T05:01:33.955Z,66.8370
2023-05-10T05:02:35.483Z,66.3894
2023-05-10T05:03:38.076Z,65.8020
2023-05-10T05:04:38.632Z,65.2763
2023-05-10T05:05:40.349Z,64.6563
2023-05-10T05:06:42.912Z,64.1886
2023-05-10T05:07:43.568Z,64.2626
2023-05-10T05:08:45.280Z,64.2786
2023-05-10T05:09:46.832Z,63.8326
2023-05-10T05:10:48.614Z,63.4659
2023-05-10T05:11:50.173Z,63.1763
2023-05-10T05:12:51.925Z,63.1842
2023-05-10T05:13:53.518Z,63.3587
2023-05-10T05:14:55.081Z,63.2131
2023-05-10T05:15:57.009Z,62.8625
2023-05-10T05:16:58.422Z,62.3526
2023-05-10T05:18:00.110Z,62.0080
2023-05-10T05:19:01.686Z,62.0236
2023-05-10T05:20:03.336Z,62.5979
2023-05-10T05:21:04.954Z,62.3386
2023-05-10T05:22:06.641Z,62.0600
2023-05-10T05:23:08.257Z,61.6619
2023-05-10T05:24:09.906Z,61.5763
2023-05-10T05:25:11.532Z,61.8921
2023-05-10T05:26:13.214Z,62.3569
2023-05-10T05:27:14.849Z,62.0620
2023-05-10T05:28:16.402Z,61.8892
2023-05-10T05:29:18.055Z,61.5805
2023-05-10T05:30:19.804Z,61.4031
2023-05-10T05:31:22.413Z,61.7024
2023-05-10T05:32:22.959Z,62.1742
2023-05-10T05:33:24.611Z,61.6601
2023-05-10T05:34:26.475Z,61.3250
2023-05-10T05:35:28.927Z,61.2221
2023-05-10T05:36:29.543Z,60.8539
2023-05-10T05:37:31.482Z,61.7465
2023-05-10T05:38:33.817Z,61.6356
2023-05-10T05:39:35.331Z,61.3698
2023-05-10T05:40:36.164Z,60.9207
2023-05-10T05:41:38.761Z,61.1176
2023-05-10T05:42:40.491Z,61.0215
2023-05-10T05:43:40.957Z,61.4075
2023-05-10T05:44:42.941Z,61.4798
2023-05-10T05:45:45.381Z,61.4841
2023-05-10T05:46:45.972Z,61.2118
2023-05-10T05:47:48.585Z,61.0438
2023-05-10T05:48:49.297Z,61.3805
2023-05-10T05:49:50.925Z,61.7229
2023-05-10T05:50:52.527Z,61.4858
2023-05-10T05:51:54.462Z,61.0820
2023-05-10T05:52:56.793Z,60.9362
2023-05-10T05:53:57.510Z,61.0639
2023-05-10T05:54:59.091Z,61.0631
2023-05-10T05:56:00.882Z,61.0184
2023-05-10T05:57:02.460Z,60.9139
2023-05-10T05:58:04.062Z,60.3563
2023-05-10T05:59:05.690Z,60.3328
2023-05-10T06:00:07.409Z,60.5786
2023-05-10T06:01:08.972Z,60.8274
2023-05-10T06:02:10.746Z,60.9863
2023-05-10T06:03:13.360Z,61.0116
2023-05-10T06:04:13.974Z,60.6632
2023-05-10T06:05:16.612Z,60.5430
2023-05-10T06:06:17.281Z,60.6229
2023-05-10T06:07:19.857Z,60.5966
2023-05-10T06:08:20.529Z,61.0616
2023-05-10T06:09:22.189Z,60.7746
2023-05-10T06:10:23.802Z,61.0158
2023-05-10T06:11:26.409Z,60.4649
2023-05-10T06:12:27.358Z,61.0981
2023-05-10T06:13:29.936Z,61.5238
2023-05-10T06:14:30.298Z,61.5272
2023-05-10T06:15:32.048Z,60.9586
2023-05-10T06:16:34.713Z,60.8247
2023-05-10T06:17:35.271Z,60.9472
2023-05-10T06:18:36.939Z,61.4903
2023-05-10T06:19:38.526Z,61.3515
2023-05-10T06:20:40.241Z,60.9408
2023-05-10T06:21:41.862Z,60.8553
2023-05-10T06:22:43.620Z,60.5725
2023-05-10T06:23:45.133Z,61.0528
2023-05-10T06:24:46.756Z,62.0428
2023-05-10T06:25:48.451Z,62.0287
2023-05-10T06:26:50.136Z,61.2113
2023-05-10T06:27:53.651Z,61.0902
2023-05-10T06:28:53.403Z,60.8214
2023-05-10T06:30:02.177Z,61.3970
2023-05-10T06:30:56.631Z,61.2862
2023-05-10T06:31:58.458Z,61.0046
2023-05-10T06:32:59.998Z,60.9651
2023-05-10T06:34:01.542Z,60.5240
2023-05-10T06:35:03.200Z,60.9611
2023-05-10T06:36:04.887Z,60.8957
2023-05-10T06:37:06.490Z,61.0771
2023-05-10T06:38:08.260Z,60.8030
2023-05-10T06:39:09.769Z,60.6475
2023-05-10T06:40:11.497Z,60.0074
2023-05-10T06:41:13.114Z,61.2010
2023-05-10T06:42:14.828Z,61.2649
2023-05-10T06:43:17.354Z,60.9579
2023-05-10T06:44:18.059Z,60.8709
2023-05-10T06:45:19.808Z,60.4022
2023-05-10T06:46:21.284Z,60.2516
2023-05-10T06:47:22.995Z,61.2178
2023-05-10T06:48:24.637Z,60.9043
2023-05-10T06:49:26.226Z,60.9391
2023-05-10T06:50:27.790Z,60.7992
2023-05-10T06:51:29.457Z,60.2322
2023-05-10T06:52:31.107Z,60.8310
2023-05-10T06:53:32.770Z,61.3392
2023-05-10T06:54:34.385Z,61.0411
2023-05-10T06:55:36.084Z,60.8724
2023-05-10T06:56:37.664Z,60.4377
2023-05-10T06:57:39.442Z,60.1669
2023-05-10T06:58:42.003Z,60.6972
2023-05-10T06:59:42.665Z,61.0033
2023-05-10T07:00:44.330Z,60.7011
2023-05-10T07:01:45.945Z,60.2903
2023-05-10T07:02:47.569Z,60.1095
2023-05-10T07:03:49.398Z,60.3368
2023-05-10T07:04:50.901Z,60.3459
2023-05-10T07:05:52.455Z,60.4779
2023-05-10T07:06:54.087Z,60.2918
2023-05-10T07:07:55.761Z,60.1609
2023-05-10T07:08:58.385Z,59.7799
2023-05-10T07:09:59.058Z,59.9099
2023-05-10T07:11:00.656Z,59.9587
2023-05-10T07:12:02.350Z,59.8272
2023-05-10T07:13:04.009Z,59.6971
2023-05-10T07:14:05.657Z,59.2347
2023-05-10T07:15:07.286Z,58.8215
2023-05-10T07:16:08.963Z,59.0156
2023-05-10T07:17:10.586Z,59.8315
2023-05-10T07:18:12.210Z,60.3228
2023-05-10T07:19:13.788Z,59.9620
2023-05-10T07:20:15.564Z,59.1480
2023-05-10T07:21:17.106Z,58.6041
2023-05-10T07:22:18.746Z,59.3413
2023-05-10T07:23:20.402Z,61.1740
2023-05-10T07:24:22.396Z,61.1249
2023-05-10T07:25:23.647Z,60.3087
2023-05-10T07:26:25.882Z,59.1007
2023-05-10T07:27:27.796Z,59.1979
2023-05-10T07:28:28.691Z,60.7078
2023-05-10T07:29:30.303Z,61.0738
2023-05-10T07:30:32.021Z,60.7026
2023-05-10T07:31:33.495Z,59.1176
2023-05-10T07:32:35.300Z,58.6793
2023-05-10T07:33:36.809Z,59.6752
2023-05-10T07:34:38.496Z,60.6794
2023-05-10T07:35:40.111Z,60.7905
2023-05-10T07:36:41.691Z,60.0185
2023-05-10T07:37:43.281Z,58.9139
2023-05-10T07:38:45.003Z,59.3845
2023-05-10T07:39:48.420Z,60.5523
2023-05-10T07:40:48.823Z,60.9713
2023-05-10T07:41:49.917Z,60.3864
2023-05-10T07:42:51.517Z,58.6616
2023-05-10T07:43:53.731Z,58.8431
2023-05-10T07:44:54.885Z,60.4006
2023-05-10T07:45:56.544Z,61.3863
2023-05-10T07:46:58.769Z,60.6339
2023-05-10T07:47:59.804Z,58.9088
2023-05-10T07:49:01.405Z,59.2323
2023-05-10T07:50:03.074Z,60.9768
2023-05-10T07:51:04.792Z,62.0875
2023-05-10T07:52:06.405Z,61.6891
2023-05-10T07:53:08.002Z,60.2913
2023-05-10T07:54:09.641Z,60.3271
2023-05-10T07:55:11.338Z,60.4017
2023-05-10T07:56:12.953Z,61.1312
2023-05-10T07:57:14.596Z,61.2382
2023-05-10T07:58:16.236Z,59.7878
2023-05-10T07:59:17.932Z,59.0147
2023-05-10T08:00:19.828Z,59.8349
2023-05-10T08:01:21.619Z,61.2785
2023-05-10T08:02:22.911Z,62.7452
2023-05-10T08:03:24.647Z,63.2435
2023-05-10T08:04:26.269Z,62.8721
2023-05-10T08:05:27.936Z,63.9540
2023-05-10T08:06:29.568Z,64.8996
2023-05-10T08:07:31.233Z,65.2885
2023-05-10T08:08:33.775Z,65.2527
2023-05-10T08:09:34.503Z,63.8288
2023-05-10T08:10:36.194Z,63.3611
2023-05-10T08:11:37.886Z,64.6723
2023-05-10T08:12:39.414Z,65.5295
2023-05-10T08:13:41.059Z,65.9209
2023-05-10T08:14:42.647Z,65.4384
2023-05-10T08:15:44.453Z,63.9789
2023-05-10T08:16:45.986Z,63.6559
2023-05-10T08:17:48.680Z,64.8907
2023-05-10T08:18:49.204Z,66.2646
2023-05-10T08:19:50.892Z,66.0541
2023-05-10T08:20:53.536Z,65.5521
2023-05-10T08:21:54.194Z,63.9423
2023-05-10T08:22:55.804Z,64.5056
2023-05-10T08:23:57.556Z,65.6853
2023-05-10T08:24:59.073Z,66.3467
2023-05-10T08:26:01.017Z,66.6152
2023-05-10T08:27:02.498Z,65.5455
2023-05-10T08:28:04.147Z,64.1968
2023-05-10T08:29:05.730Z,65.2341
2023-05-10T08:30:07.424Z,66.3993
2023-05-10T08:31:09.147Z,66.8239
2023-05-10T08:32:10.720Z,66.1750
2023-05-10T08:33:12.426Z,65.3161
2023-05-10T08:34:14.039Z,64.2827
2023-05-10T08:35:15.852Z,65.4260
2023-05-10T08:36:17.362Z,66.4710
2023-05-10T08:37:19.012Z,66.4717
2023-05-10T08:38:21.533Z,65.7649
2023-05-10T08:39:29.847Z,64.9016
2023-05-10T08:40:23.878Z,63.8201
2023-05-10T08:41:25.511Z,64.7699
2023-05-10T08:42:27.187Z,65.9076
2023-05-10T08:43:29.765Z,66.3086
2023-05-10T08:44:30.431Z,65.6256
2023-05-10T08:45:32.087Z,64.7832
2023-05-10T08:46:33.770Z,64.2433
2023-05-10T08:47:35.365Z,65.0142
2023-05-10T08:48:37.025Z,65.9946
2023-05-10T08:49:38.654Z,66.8314
2023-05-10T08:50:40.592Z,66.0298
2023-05-10T08:51:43.823Z,65.3174
2023-05-10T08:52:43.565Z,64.6477
2023-05-10T08:53:45.492Z,65.7090
2023-05-10T08:54:47.695Z,67.2086
2023-05-10T08:55:48.386Z,68.1408
2023-05-10T08:56:50.192Z,67.2489
2023-05-10T08:57:51.642Z,66.2943
2023-05-10T08:58:53.444Z,65.3732
2023-05-10T08:59:55.002Z,66.1010
2023-05-10T09:00:56.801Z,66.9540
2023-05-10T09:01:58.374Z,67.6401
2023-05-10T09:03:00.038Z,67.0006
2023-05-10T09:04:02.045Z,66.3547
2023-05-10T09:05:03.413Z,65.4728
2023-05-10T09:06:05.063Z,65.8450
2023-05-10T09:07:06.623Z,66.8405
2023-05-10T09:08:08.324Z,66.9155
2023-05-10T09:09:09.852Z,66.0611
2023-05-10T09:10:11.541Z,64.9743
2023-05-10T09:11:13.192Z,63.9677
2023-05-10T09:12:14.810Z,64.6197
2023-05-10T09:13:16.527Z,65.4333
2023-05-10T09:14:18.122Z,65.7935
2023-05-10T09:15:19.831Z,64.9757
2023-05-10T09:16:22.460Z,64.4754
2023-05-10T09:17:23.152Z,63.7601
2023-05-10T09:18:26.018Z,64.1119
2023-05-10T09:19:27.400Z,64.9461
2023-05-10T09:20:27.884Z,65.7515
2023-05-10T09:21:29.505Z,64.9256
2023-05-10T09:22:31.282Z,64.0322
2023-05-10T09:23:32.764Z,63.8179
2023-05-10T09:24:35.416Z,64.5455
2023-05-10T09:25:36.094Z,65.2809
2023-05-10T09:26:37.747Z,65.8114
2023-05-10T09:27:39.345Z,65.8546
2023-05-10T09:28:41.088Z,65.0605
2023-05-10T09:29:42.624Z,64.4717
2023-05-10T09:30:44.340Z,65.1459
2023-05-10T09:31:45.928Z,66.1987
2023-05-10T09:32:47.643Z,65.9411
2023-05-10T09:33:49.214Z,65.8042
2023-05-10T09:34:50.847Z,64.7936
2023-05-10T09:35:52.586Z,64.1523
2023-05-10T09:36:54.121Z,64.9907
2023-05-10T09:37:55.861Z,65.7284
2023-05-10T09:38:57.535Z,65.7504
2023-05-10T09:39:59.076Z,65.4178
2023-05-10T09:41:00.817Z,64.0653
2023-05-10T09:42:02.362Z,63.6484
2023-05-10T09:43:04.037Z,64.5032
2023-05-10T09:44:05.686Z,65.6921
2023-05-10T09:45:07.320Z,64.9650
2023-05-10T09:46:09.003Z,64.6987
2023-05-10T09:47:10.564Z,63.6518
2023-05-10T09:48:12.462Z,63.5972
2023-05-10T09:49:13.853Z,64.1188
2023-05-10T09:50:15.563Z,65.0827
2023-05-10T09:51:17.235Z,64.6959
2023-05-10T09:52:18.834Z,63.7898
2023-05-10T09:53:20.468Z,62.7655
2023-05-10T09:54:22.110Z,63.2534
2023-05-10T09:55:23.765Z,64.2177
2023-05-10T09:56:25.431Z,65.0760
2023-05-10T09:57:27.038Z,64.6136
2023-05-10T09:58:28.733Z,64.1152
2023-05-10T09:59:30.325Z,62.9418
2023-05-10T10:00:31.975Z,63.1707
2023-05-10T10:01:33.705Z,63.8530
2023-05-10T10:02:35.283Z,64.6974
2023-05-10T10:03:36.936Z,64.1876
2023-05-10T10:04:38.545Z,63.9366
2023-05-10T10:05:40.274Z,62.8796
2023-05-10T10:06:41.831Z,63.1195
2023-05-10T10:07:43.476Z,64.0322
2023-05-10T10:08:45.192Z,65.0726
2023-05-10T10:09:46.827Z,64.1012
2023-05-10T10:10:48.437Z,64.1116
2023-05-10T10:11:50.064Z,63.1484
2023-05-10T10:12:51.666Z,63.6806
2023-05-10T10:13:53.362Z,64.4698
2023-05-10T10:14:54.971Z,65.3518
2023-05-10T10:15:56.627Z,64.4755
2023-05-10T10:17:06.787Z,63.0763
2023-05-10T10:18:00.044Z,62.2611
2023-05-10T10:19:01.700Z,62.7812
2023-05-10T10:20:03.266Z,64.0504
2023-05-10T10:21:04.804Z,64.6625
2023-05-10T10:22:06.583Z,63.7667
2023-05-10T10:23:08.134Z,62.7453
2023-05-10T10:24:09.857Z,60.7867
2023-05-10T10:25:11.381Z,60.0670
2023-05-10T10:26:13.106Z,59.9796
2023-05-10T10:27:14.692Z,60.0201
2023-05-10T10:28:16.271Z,58.9481
2023-05-10T10:29:17.991Z,57.7525
2023-05-10T10:30:19.731Z,57.6382
2023-05-10T10:31:21.323Z,57.6124
2023-05-10T10:32:23.022Z,57.4821
2023-05-10T10:33:28.739Z,57.2679
2023-05-10T10:34:26.234Z,57.1970
2023-05-10T10:35:27.890Z,56.5936
2023-05-10T10:36:29.554Z,57.0393
2023-05-10T10:37:31.096Z,56.7495
2023-05-10T10:38:32.773Z,56.7965
2023-05-10T10:39:34.467Z,56.1370
2023-05-10T10:40:36.083Z,56.0962
2023-05-10T10:41:37.717Z,56.6541
2023-05-10T10:42:39.358Z,57.7085
2023-05-10T10:43:40.997Z,58.2433
2023-05-10T10:44:42.614Z,58.6207
2023-05-10T10:45:44.238Z,59.0359
2023-05-10T10:46:45.946Z,58.7827
2023-05-10T10:47:47.642Z,58.2732
2023-05-10T10:48:49.139Z,58.9459
2023-05-10T10:49:51.547Z,59.4447
2023-05-10T10:50:52.611Z,59.8364
2023-05-10T10:51:54.079Z,60.3614
2023-05-10T10:52:55.830Z,59.4493
2023-05-10T10:53:57.402Z,58.5507
2023-05-10T10:54:59.175Z,59.0656
2023-05-10T10:56:00.744Z,60.0114
2023-05-10T10:57:02.348Z,60.8195
2023-05-10T10:58:03.980Z,60.1081
2023-05-10T10:59:05.653Z,58.8983
2023-05-10T11:00:07.295Z,58.6300
2023-05-10T11:01:08.939Z,59.2191
2023-05-10T11:02:10.587Z,59.8724
2023-05-10T11:03:12.246Z,61.0281
2023-05-10T11:04:14.052Z,59.8460
2023-05-10T11:05:15.602Z,58.3813
2023-05-10T11:06:17.152Z,58.3872
2023-05-10T11:07:18.820Z,58.7684
2023-05-10T11:08:20.400Z,59.4114
2023-05-10T11:09:21.982Z,60.6381
2023-05-10T11:10:24.038Z,59.4020
2023-05-10T11:11:25.286Z,57.8414
2023-05-10T11:12:27.105Z,58.2515
2023-05-10T11:13:28.567Z,58.5190
2023-05-10T11:14:30.363Z,59.2452
2023-05-10T11:15:31.988Z,60.3086
2023-05-10T11:16:33.553Z,58.6885
2023-05-10T11:17:35.231Z,57.1991
2023-05-10T11:18:36.916Z,57.7594
2023-05-10T11:19:38.448Z,58.4302
2023-05-10T11:20:40.203Z,58.9475
2023-05-10T11:21:41.718Z,59.5533
2023-05-10T11:22:43.471Z,58.7953
2023-05-10T11:23:45.066Z,57.9281
2023-05-10T11:24:47.860Z,58.1831
2023-05-10T11:25:48.382Z,58.5610
2023-05-10T11:26:50.000Z,59.3615
2023-05-10T11:27:51.603Z,60.3899
2023-05-10T11:28:53.280Z,58.9402
2023-05-10T11:29:54.881Z,57.9332
2023-05-10T11:30:56.625Z,58.7090
2023-05-10T11:31:58.183Z,59.3538
2023-05-10T11:32:59.816Z,60.4890
2023-05-10T11:34:01.464Z,60.4207
2023-05-10T11:35:03.090Z,59.0671
2023-05-10T11:36:04.810Z,58.3881
2023-05-10T11:37:06.354Z,59.5833
2023-05-10T11:38:08.031Z,60.5584
2023-05-10T11:39:09.667Z,61.8818
2023-05-10T11:40:11.386Z,61.9770
2023-05-10T11:41:12.966Z,60.2470
2023-05-10T11:42:15.362Z,59.0070
2023-05-10T11:43:16.209Z,59.5440
2023-05-10T11:44:17.923Z,60.2278
2023-05-10T11:45:19.549Z,61.8258
2023-05-10T11:46:21.307Z,61.8333
2023-05-10T11:47:22.918Z,60.5324
2023-05-10T11:48:24.490Z,59.1579
2023-05-10T11:49:26.159Z,59.3892
2023-05-10T11:50:27.724Z,59.1920
2023-05-10T11:51:29.489Z,59.5924
2023-05-10T11:52:31.086Z,58.5706
2023-05-10T11:53:32.677Z,56.1542
2023-05-10T11:54:34.433Z,55.3362
2023-05-10T11:55:35.939Z,55.6260
2023-05-10T11:56:37.666Z,55.8090
2023-05-10T11:57:39.564Z,55.1502
2023-05-10T11:58:40.930Z,54.3317
2023-05-10T11:59:43.331Z,53.7886
2023-05-10T12:00:44.173Z,54.1943
2023-05-10T12:01:45.903Z,54.3752
2023-05-10T12:02:47.585Z,54.0490
2023-05-10T12:03:49.226Z,53.5926
2023-05-10T12:04:50.873Z,53.0177
2023-05-10T12:05:52.404Z,53.0628
2023-05-10T12:06:54.116Z,54.0591
2023-05-10T12:07:55.736Z,55.3974
2023-05-10T12:08:57.310Z,55.6510
2023-05-10T12:09:59.054Z,55.5517
2023-05-10T12:11:00.609Z,55.2295
2023-05-10T12:12:02.295Z,55.1469
2023-05-10T12:13:03.899Z,56.5424
2023-05-10T12:14:05.638Z,57.6231
2023-05-10T12:15:07.213Z,57.4698
2023-05-10T12:16:08.805Z,57.2072
2023-05-10T12:17:10.470Z,55.9575
2023-05-10T12:18:12.192Z,56.1627
2023-05-10T12:19:13.768Z,57.6402
2023-05-10T12:20:15.612Z,58.4723
2023-05-10T12:21:17.026Z,59.2514
2023-05-10T12:22:18.717Z,57.5931
2023-05-10T12:23:20.315Z,56.4609
2023-05-10T12:24:21.943Z,57.0817
2023-05-10T12:25:23.629Z,58.3692